Time,TemperatureF,DewpointF,PressureIn,WindDirection,WindDirectionDegrees,WindSpeedMPH,WindSpeedGustMPH,Humidity,HourlyPrecipIn,Conditions,Clouds,dailyrainin,SoftwareType,DateUTC
2013-08-21 00:14:00,77.0,66.0,30.09,WSW,246,4.0,-999.0,68,-99.99,,,-99.99,,2013-08-21 04:14:00,
2013-08-21 00:24:00,76.0,66.0,30.09,SW,214,3.0,-999.0,72,-99.99,,,-99.99,,2013-08-21 04:24:00,
2013-08-21 00:54:00,76.0,66.0,30.09,WSW,254,3.0,-999.0,72,-99.99,,,-99.99,,2013-08-21 04:54:00,
2013-08-21 01:13:00,75.0,65.0,30.09,SW,229,2.0,-999.0,72,-99.99,,,-99.99,,2013-08-21 05:13:00,
2013-08-21 01:23:00,75.0,66.0,30.09,WNW,298,2.0,-999.0,73,-99.99,,,-99.99,,2013-08-21 05:23:00,
2013-08-21 01:52:00,74.0,65.0,30.09,WSW,237,2.0,-999.0,74,-99.99,,,-99.99,,2013-08-21 05:52:00,
2013-08-21 02:12:00,74.0,66.0,30.09,South,183,0.0,-999.0,75,-99.99,,,-99.99,,2013-08-21 06:12:00,
2013-08-21 02:22:00,73.0,65.0,30.09,South,183,0.0,-999.0,77,-99.99,,,-99.99,,2013-08-21 06:22:00,
2013-08-21 02:42:00,73.0,65.0,30.09,WSW,237,1.0,-999.0,77,-99.99,,,-99.99,,2013-08-21 06:42:00,
2013-08-21 02:52:00,73.0,65.0,30.09,WSW,241,0.0,-999.0,77,-99.99,,,-99.99,,2013-08-21 06:52:00,
2013-08-21 03:11:00,71.0,65.0,30.09,WSW,240,0.0,-999.0,81,-99.99,,,-99.99,,2013-08-21 07:11:00,
2013-08-21 03:22:00,70.0,65.0,30.09,WSW,240,0.0,-999.0,83,-99.99,,,-99.99,,2013-08-21 07:22:00,
2013-08-21 03:53:00,70.0,65.0,30.09,WSW,240,0.0,-999.0,83,-99.99,,,-99.99,,2013-08-21 07:53:00,
2013-08-21 04:03:00,70.0,65.0,30.09,WSW,240,0.0,-999.0,83,-99.99,,,-99.99,,2013-08-21 08:03:00,
2013-08-21 04:12:00,70.0,65.0,30.09,WSW,240,0.0,-999.0,83,-99.99,,,-99.99,,2013-08-21 08:12:00,
2013-08-21 04:53:00,70.0,65.0,30.09,WSW,250,0.0,-999.0,83,-99.99,,,-99.99,,2013-08-21 08:53:00,
2013-08-21 05:01:00,70.0,65.0,30.09,WSW,250,0.0,-999.0,83,-99.99,,,-99.99,,2013-08-21 09:01:00,
2013-08-21 05:11:00,70.0,65.0,30.09,WSW,250,0.0,-999.0,83,-99.99,,,-99.99,,2013-08-21 09:11:00,
2013-08-21 05:22:00,70.0,65.0,30.09,SSW,198,1.0,-999.0,83,-99.99,,,-99.99,,2013-08-21 09:22:00,
2013-08-21 05:53:00,69.0,64.0,30.09,SSW,200,0.0,-999.0,83,-99.99,,,-99.99,,2013-08-21 09:53:00,
2013-08-21 06:13:00,69.0,64.0,30.09,SSW,200,0.0,-999.0,83,-99.99,,,-99.99,,2013-08-21 10:13:00,
2013-08-21 06:23:00,68.0,63.0,30.10,SSW,200,0.0,-999.0,84,-99.99,,,-99.99,,2013-08-21 10:23:00,
2013-08-21 06:53:00,68.0,64.0,30.10,SSW,193,0.0,-999.0,86,-99.99,,,-99.99,,2013-08-21 10:53:00,
2013-08-21 07:12:00,69.0,64.0,30.10,SSW,195,0.0,-999.0,85,-99.99,,,-99.99,,2013-08-21 11:12:00,
2013-08-21 07:22:00,69.0,64.0,30.11,SW,224,1.0,-999.0,84,-99.99,,,-99.99,,2013-08-21 11:22:00,
2013-08-21 07:42:00,69.0,64.0,30.11,WSW,239,0.0,-999.0,83,-99.99,,,-99.99,,2013-08-21 11:42:00,
2013-08-21 07:52:00,69.0,64.0,30.11,SSW,208,0.0,-999.0,83,-99.99,,,-99.99,,2013-08-21 11:52:00,
2013-08-21 08:12:00,69.0,63.0,30.11,South,174,1.0,-999.0,82,-99.99,,,-99.99,,2013-08-21 12:12:00,
2013-08-21 08:22:00,70.0,64.0,30.11,WSW,249,1.0,-999.0,82,-99.99,,,-99.99,,2013-08-21 12:22:00,
2013-08-21 08:52:00,72.0,65.0,30.12,SW,225,1.0,-999.0,79,-99.99,,,-99.99,,2013-08-21 12:52:00,
2013-08-21 09:12:00,73.0,65.0,30.12,WSW,239,3.0,-999.0,77,-99.99,,,-99.99,,2013-08-21 13:12:00,
2013-08-21 09:21:00,74.0,66.0,30.12,SW,216,3.0,-999.0,75,-99.99,,,-99.99,,2013-08-21 13:21:00,
2013-08-21 09:42:00,75.0,66.0,30.12,SSW,210,2.0,-999.0,74,-99.99,,,-99.99,,2013-08-21 13:42:00,
2013-08-21 09:52:00,75.0,66.0,30.11,WSW,241,3.0,-999.0,74,-99.99,,,-99.99,,2013-08-21 13:52:00,
2013-08-21 10:12:00,76.0,67.0,30.11,SW,214,3.0,-999.0,73,-99.99,,,-99.99,,2013-08-21 14:12:00,
2013-08-21 10:21:00,77.0,67.0,30.11,SSW,208,3.0,-999.0,72,-99.99,,,-99.99,,2013-08-21 14:21:00,
2013-08-21 10:52:00,78.0,68.0,30.11,SW,236,4.0,-999.0,71,-99.99,,,-99.99,,2013-08-21 14:52:00,
2013-08-21 11:11:00,78.0,67.0,30.11,WSW,237,4.0,-999.0,70,-99.99,,,-99.99,,2013-08-21 15:11:00,
2013-08-21 11:22:00,79.0,68.0,30.11,South,187,3.0,-999.0,69,-99.99,,,-99.99,,2013-08-21 15:22:00,
2013-08-21 11:43:00,80.0,68.0,30.10,SSW,203,4.0,-999.0,68,-99.99,,,-99.99,,2013-08-21 15:43:00,
2013-08-21 11:54:00,81.0,69.0,30.11,WSW,245,5.0,-999.0,67,-99.99,,,-99.99,,2013-08-21 15:54:00,
2013-08-21 12:13:00,82.0,69.0,30.10,SSW,203,4.0,-999.0,66,-99.99,,,-99.99,,2013-08-21 16:13:00,
2013-08-21 12:24:00,82.0,69.0,30.10,SSW,203,4.0,-999.0,66,-99.99,,,-99.99,,2013-08-21 16:24:00,
2013-08-21 12:53:00,83.0,69.0,30.10,SSW,212,5.0,-999.0,63,-99.99,,,-99.99,,2013-08-21 16:53:00,
2013-08-21 13:13:00,83.0,70.0,30.09,South,185,5.0,-999.0,65,-99.99,,,-99.99,,2013-08-21 17:13:00,
2013-08-21 13:23:00,85.0,70.0,30.09,SSW,210,4.0,-999.0,62,-99.99,,,-99.99,,2013-08-21 17:23:00,
2013-08-21 13:53:00,86.0,70.0,30.08,WSW,257,6.0,-999.0,60,-99.99,,,-99.99,,2013-08-21 17:53:00,
2013-08-21 14:02:00,86.0,70.0,30.08,WSW,257,6.0,-999.0,60,-99.99,,,-99.99,,2013-08-21 18:02:00,
2013-08-21 14:12:00,86.0,70.0,30.08,WSW,257,6.0,-999.0,60,-99.99,,,-99.99,,2013-08-21 18:12:00,
2013-08-21 14:22:00,85.0,68.0,30.07,SSW,202,5.0,-999.0,57,-99.99,,,-99.99,,2013-08-21 18:22:00,
2013-08-21 14:52:00,87.0,70.0,30.06,South,191,5.0,-999.0,57,-99.99,,,-99.99,,2013-08-21 18:52:00,
2013-08-21 15:12:00,88.0,69.0,30.06,South,191,5.0,-999.0,54,-99.99,,,-99.99,,2013-08-21 19:12:00,
2013-08-21 15:22:00,89.0,69.0,30.05,SW,229,5.0,-999.0,52,-99.99,,,-99.99,,2013-08-21 19:22:00,
2013-08-21 15:52:00,89.0,70.0,30.03,South,185,8.0,-999.0,53,-99.99,,,-99.99,,2013-08-21 19:52:00,
2013-08-21 16:22:00,87.0,70.0,30.03,South,173,7.0,-999.0,57,-99.99,,,-99.99,,2013-08-21 20:22:00,
2013-08-21 16:52:00,88.0,69.0,30.02,South,177,6.0,-999.0,54,-99.99,,,-99.99,,2013-08-21 20:52:00,
2013-08-21 17:22:00,87.0,70.0,30.01,SW,218,7.0,-999.0,57,-99.99,,,-99.99,,2013-08-21 21:22:00,
2013-08-21 17:55:00,86.0,69.0,30.00,SSW,209,6.0,-999.0,58,-99.99,,,-99.99,,2013-08-21 21:55:00,
2013-08-21 18:24:00,87.0,69.0,29.99,SSW,194,6.0,-999.0,56,-99.99,,,-99.99,,2013-08-21 22:24:00,
2013-08-21 18:43:00,85.0,68.0,29.99,South,175,6.0,-999.0,57,-99.99,,,-99.99,,2013-08-21 22:43:00,
2013-08-21 18:53:00,85.0,68.0,29.99,South,175,6.0,-999.0,57,-99.99,,,-99.99,,2013-08-21 22:53:00,
2013-08-21 19:13:00,85.0,68.0,29.98,SSW,199,4.0,-999.0,56,-99.99,,,-99.99,,2013-08-21 23:13:00,
2013-08-21 19:22:00,85.0,68.0,29.98,SSW,199,4.0,-999.0,56,-99.99,,,-99.99,,2013-08-21 23:22:00,
2013-08-21 19:53:00,82.0,66.0,29.98,SSW,213,5.0,-999.0,59,-99.99,,,-99.99,,2013-08-21 23:53:00,
2013-08-21 20:12:00,82.0,67.0,29.98,SW,223,4.0,-999.0,60,-99.99,,,-99.99,,2013-08-22 00:12:00,
2013-08-21 20:22:00,80.0,66.0,29.98,SW,223,5.0,-999.0,62,-99.99,,,-99.99,,2013-08-22 00:22:00,
2013-08-21 20:42:00,80.0,66.0,29.97,SW,226,3.0,-999.0,62,-99.99,,,-99.99,,2013-08-22 00:42:00,
2013-08-21 20:52:00,80.0,66.0,29.98,WSW,239,3.0,-999.0,63,-99.99,,,-99.99,,2013-08-22 00:52:00,
2013-08-21 21:11:00,79.0,66.0,29.98,SW,221,4.0,-999.0,64,-99.99,,,-99.99,,2013-08-22 01:11:00,
2013-08-21 21:22:00,79.0,66.0,29.98,SW,229,3.0,-999.0,64,-99.99,,,-99.99,,2013-08-22 01:22:00,
2013-08-21 21:42:00,79.0,66.0,29.98,SW,227,3.0,-999.0,64,-99.99,,,-99.99,,2013-08-22 01:42:00,
2013-08-21 21:52:00,79.0,66.0,29.99,WSW,239,3.0,-999.0,64,-99.99,,,-99.99,,2013-08-22 01:52:00,
2013-08-21 22:22:00,79.0,65.0,29.99,WSW,257,4.0,-999.0,62,-99.99,,,-99.99,,2013-08-22 02:22:00,
2013-08-21 23:12:00,79.0,65.0,29.99,WSW,237,4.0,-999.0,62,-99.99,,,-99.99,,2013-08-22 03:12:00,
2013-08-21 23:22:00,79.0,65.0,29.99,WSW,237,4.0,-999.0,62,-99.99,,,-99.99,,2013-08-22 03:22:00,
2013-08-21 23:45:00,78.0,64.0,29.99,WSW,241,3.0,-999.0,62,-99.99,,,-99.99,,2013-08-22 03:45:00,
2013-08-21 23:54:00,78.0,65.0,29.98,WSW,246,2.0,-999.0,64,-99.99,,,-99.99,,2013-08-22 03:54:00,